Terminal Aerodrome Forecast
Issued by NWS Charleston, WV

Current Version | Previous Version | Graphics & Text | Print | Product List | Glossary On
Versions: 1 2 3 4 5 6 7 8 9 10 11 12 13 14 15 16 17 18 19 20 21 22 23 24
348
FTUS41 KRLX 091503 AAA
TAFEKN
TAF AMD
KEKN 091503Z 0915/1012 27009G15KT 2SM -SHSN BR SCT008 OVC015
      TEMPO 0915/0919 3/4SM -SHSN BR BKN008
     FM091900 27010G20KT 1/2SM FZFG SCT001 OVC007
     FM100100 27010G19KT 1SM -SHSN SCT001 OVC008
     FM100300 27010G19KT 2SM -SHSN OVC010
     FM100500 28010G18KT 3SM -SHSN OVC015
     FM100800 27009KT 3SM -SHSN OVC015=

USA.gov is the U.S. government's official web portal to all federal, state and local government web resources and services.